Columbus, Ohio
Traffic Map
Current Weather Conditions
Columbus, Ohio
Scattered Clouds
Scattered Clouds
72°
Feels Like: 72°
Wind Chill: 72° Ceiling: Unl
Heat Index: 72° Visibility: 10mi
Dew Point: 48° Wind: 15mph
Humidity: 43% Direction: 70° (ENE)
Pressure: 29.91in Gusts: 0mph
Raw Report DataKCMH 241651Z 07013KT 10SM FEW100 SCT200 22/09 A2991 RMK AO2 SLP125 T02220089
Traffic Incident Summary
Active as of:
Severity:
Category:
InformationThere was an issue retrieving the traffic information for this location. Please try a different location or try again shortly.
Advertisements
Track Severe Weather on mobile